createdAt,value
2019-04-16T00:00:56.272Z,13.33
2019-04-16T00:03:26.042Z,11.10
2019-04-16T00:05:58.909Z,13.30
2019-04-16T00:08:54.164Z,11.30
2019-04-16T00:11:33.286Z,13.67
2019-04-16T00:14:04.558Z,11.60
2019-04-16T00:16:34.345Z,14.03
2019-04-16T00:19:05.702Z,13.60
2019-04-16T00:21:41.247Z,12.00
2019-04-16T00:24:18.267Z,13.80
2019-04-16T00:26:45.747Z,11.60
2019-04-16T00:29:15.163Z,14.40
2019-04-16T00:31:46.288Z,13.90
2019-04-16T00:34:15.754Z,12.77
2019-04-16T00:36:48.405Z,14.73
2019-04-16T00:39:16.449Z,12.43
2019-04-16T00:41:45.911Z,14.87
2019-04-16T00:44:15.381Z,12.73
2019-04-16T00:46:45.016Z,13.90
2019-04-16T00:49:14.483Z,13.10
2019-04-16T00:51:43.932Z,15.37
2019-04-16T00:54:13.696Z,13.03
2019-04-16T00:56:43.611Z,12.90
2019-04-16T00:59:14.309Z,15.17
2019-04-16T01:01:43.793Z,12.77
2019-04-16T01:04:13.513Z,15.40
2019-04-16T01:06:43.533Z,12.70
2019-04-16T01:09:13.192Z,14.23
2019-04-16T01:11:42.729Z,13.10
2019-04-16T01:14:12.769Z,14.47
2019-04-16T01:16:42.491Z,14.77
2019-04-16T01:19:12.681Z,12.80
2019-04-16T01:21:44.786Z,15.63
2019-04-16T01:24:14.341Z,14.80
2019-04-16T01:26:44.090Z,13.70
2019-04-16T01:29:15.386Z,15.17
2019-04-16T01:32:02.690Z,13.07
2019-04-16T01:34:36.669Z,15.73
2019-04-16T01:37:20.162Z,14.80
2019-04-16T01:39:51.443Z,14.07
2019-04-16T01:42:23.682Z,15.30
2019-04-16T01:44:52.534Z,16.03
2019-04-16T01:47:21.996Z,16.80
2019-04-16T01:49:51.470Z,14.10
2019-04-16T01:52:20.944Z,13.83
2019-04-16T01:54:51.439Z,19.43
2019-04-16T01:57:21.619Z,16.30
2019-04-16T01:59:51.087Z,16.80
2019-04-16T02:02:20.600Z,16.13
2019-04-16T02:04:52.002Z,17.23
2019-04-16T02:07:21.595Z,16.00
2019-04-16T02:09:51.082Z,14.97
2019-04-16T02:12:20.524Z,15.47
2019-04-16T02:14:51.142Z,12.83
2019-04-16T02:17:20.715Z,15.07
2019-04-16T02:19:50.187Z,16.10
2019-04-16T02:22:19.670Z,16.60
2019-04-16T02:24:49.515Z,13.77
2019-04-16T02:27:19.005Z,17.00
2019-04-16T02:29:48.467Z,17.73
2019-04-16T02:32:17.946Z,17.03
2019-04-16T02:34:47.439Z,15.67
2019-04-16T02:37:16.885Z,16.73
2019-04-16T02:39:48.756Z,17.37
2019-04-16T02:42:18.049Z,14.20
2019-04-16T02:44:49.895Z,17.17
2019-04-16T02:47:18.973Z,16.87
2019-04-16T02:49:49.308Z,17.27
2019-04-16T02:52:20.396Z,16.87
2019-04-16T02:54:51.769Z,17.20
2019-04-16T02:57:37.817Z,17.03
2019-04-16T03:00:09.123Z,17.93
2019-04-16T03:02:40.705Z,16.70
2019-04-16T03:05:11.944Z,18.00
2019-04-16T03:07:41.356Z,17.53
2019-04-16T03:10:13.312Z,17.87
2019-04-16T03:12:42.046Z,18.13
2019-04-16T03:15:11.744Z,16.97
2019-04-16T03:17:43.673Z,19.63
2019-04-16T03:20:15.011Z,18.87
2019-04-16T03:22:44.442Z,17.80
2019-04-16T03:25:14.655Z,18.00
2019-04-16T03:27:44.231Z,18.13
2019-04-16T03:30:13.878Z,18.53
2019-04-16T03:32:51.022Z,18.63
2019-04-16T03:35:25.007Z,17.87
2019-04-16T03:37:51.745Z,18.00
2019-04-16T03:40:24.717Z,18.33
2019-04-16T03:42:52.386Z,18.07
2019-04-16T03:45:21.846Z,18.70
2019-04-16T03:47:52.351Z,18.47
2019-04-16T03:50:21.980Z,18.40
2019-04-16T03:52:51.503Z,18.07
2019-04-16T03:55:25.026Z,18.70
2019-04-16T03:57:52.169Z,18.73
2019-04-16T04:00:21.939Z,18.40
2019-04-16T04:02:55.169Z,18.83
2019-04-16T04:05:22.938Z,18.70
2019-04-16T04:07:55.213Z,19.70
2019-04-16T04:10:30.700Z,18.43
2019-04-16T04:12:55.326Z,19.67
2019-04-16T04:15:26.291Z,18.77
2019-04-16T04:17:56.131Z,19.10
2019-04-16T04:20:25.614Z,19.40
2019-04-16T04:22:57.040Z,18.50
2019-04-16T04:25:26.565Z,18.63
2019-04-16T04:27:56.644Z,19.87
2019-04-16T04:30:28.710Z,19.73
2019-04-16T04:32:57.767Z,19.33
2019-04-16T04:35:27.224Z,19.77
2019-04-16T04:37:56.695Z,19.67
2019-04-16T04:40:26.431Z,18.67
2019-04-16T04:42:57.676Z,19.63
2019-04-16T04:45:27.072Z,19.60
2019-04-16T04:47:56.555Z,18.90
2019-04-16T04:50:26.082Z,18.50
2019-04-16T04:52:55.565Z,18.67
2019-04-16T04:55:26.870Z,18.63
2019-04-16T04:57:56.214Z,18.77
2019-04-16T05:00:25.681Z,18.60
2019-04-16T05:02:55.183Z,18.23
2019-04-16T05:05:29.093Z,18.23
2019-04-16T05:07:59.967Z,19.77
2019-04-16T05:10:29.702Z,18.87
2019-04-16T05:12:59.178Z,18.27
2019-04-16T05:15:29.407Z,18.50
2019-04-16T05:17:59.491Z,19.43
2019-04-16T05:20:29.912Z,18.33
2019-04-16T05:22:59.736Z,16.30
2019-04-16T05:25:33.267Z,18.43
2019-04-16T05:28:00.689Z,17.53
2019-04-16T05:30:30.151Z,17.00
2019-04-16T05:33:04.870Z,16.17
2019-04-16T05:35:31.140Z,16.17
2019-04-16T05:38:00.653Z,15.10
2019-04-16T05:40:34.252Z,13.93
2019-04-16T05:43:01.270Z,14.40
2019-04-16T05:45:30.729Z,15.40
2019-04-16T05:48:00.239Z,17.70
2019-04-16T05:50:30.062Z,15.23
2019-04-16T05:52:59.552Z,15.20
2019-04-16T05:55:39.828Z,14.93
2019-04-16T05:58:09.282Z,14.70
2019-04-16T06:00:43.079Z,14.33
2019-04-16T06:03:12.579Z,15.37
2019-04-16T06:05:42.040Z,15.03
2019-04-16T06:08:11.916Z,13.83
2019-04-16T06:10:41.375Z,14.47
2019-04-16T06:13:15.527Z,14.17
2019-04-16T06:15:52.973Z,14.73
2019-04-16T06:18:38.053Z,14.50
2019-04-16T06:21:07.584Z,14.33
2019-04-16T06:23:48.381Z,13.83
2019-04-16T06:26:28.562Z,14.20
2019-04-16T06:29:00.151Z,14.10
2019-04-16T06:31:31.546Z,14.80
2019-04-16T06:34:02.666Z,14.17
2019-04-16T06:36:45.484Z,14.03
2019-04-16T06:39:19.840Z,14.73
2019-04-16T06:41:52.648Z,13.73
2019-04-16T06:44:23.956Z,14.33
2019-04-16T06:47:11.183Z,14.90
2019-04-16T06:49:51.180Z,12.70
2019-04-16T06:52:21.807Z,13.80
2019-04-16T06:55:00.464Z,13.33
2019-04-16T06:57:33.869Z,13.40
2019-04-16T07:00:10.718Z,13.97
2019-04-16T07:03:01.343Z,14.37
2019-04-16T07:05:22.747Z,13.97
2019-04-16T07:08:11.920Z,14.57
2019-04-16T07:10:45.718Z,14.60
2019-04-16T07:13:15.281Z,13.93
2019-04-16T07:15:44.742Z,15.27
2019-04-16T07:18:14.561Z,14.57
2019-04-16T07:20:45.654Z,14.17
2019-04-16T07:23:15.382Z,14.27
2019-04-16T07:25:45.353Z,14.03
2019-04-16T07:28:16.943Z,45.00
2019-04-16T07:31:04.466Z,14.97
2019-04-16T07:33:52.008Z,14.60
2019-04-16T07:36:38.340Z,15.20
2019-04-16T07:39:28.779Z,14.87
2019-04-16T07:42:11.789Z,13.87
2019-04-16T07:44:46.043Z,14.23
2019-04-16T07:47:19.821Z,12.60
2019-04-16T07:50:01.961Z,14.00
2019-04-16T07:52:35.930Z,12.10
2019-04-16T07:55:26.573Z,12.23
2019-04-16T07:57:55.804Z,11.73
2019-04-16T08:00:25.523Z,11.20
2019-04-16T08:02:54.988Z,11.50
2019-04-16T08:05:27.609Z,12.17
2019-04-16T08:07:55.733Z,12.00
2019-04-16T08:10:25.200Z,11.63
2019-04-16T08:12:57.235Z,12.10
2019-04-16T08:15:27.960Z,11.30
2019-04-16T08:17:57.716Z,11.80
2019-04-16T08:20:27.269Z,11.30
2019-04-16T08:22:58.387Z,11.63
2019-04-16T08:25:33.639Z,12.33
2019-04-16T08:28:01.031Z,11.53
2019-04-16T08:30:34.559Z,10.93
2019-04-16T08:33:01.658Z,11.50
2019-04-16T08:35:33.573Z,11.47
2019-04-16T08:38:03.623Z,12.37
2019-04-16T08:40:33.090Z,11.93
2019-04-16T08:43:02.659Z,11.80
2019-04-16T08:45:32.106Z,11.83
2019-04-16T08:48:02.170Z,11.70
2019-04-16T08:50:31.658Z,11.47
2019-04-16T08:53:01.137Z,11.33
2019-04-16T08:55:30.615Z,20.33
2019-04-16T08:58:00.265Z,10.97
2019-04-16T09:00:30.507Z,11.23
2019-04-16T09:03:00.018Z,11.10
2019-04-16T09:05:29.477Z,11.07
2019-04-16T09:08:11.912Z,11.77
2019-04-16T09:10:31.760Z,11.60
2019-04-16T09:13:05.680Z,11.30
2019-04-16T09:15:37.023Z,11.50
2019-04-16T09:18:26.481Z,12.17
2019-04-16T09:20:55.935Z,11.43
2019-04-16T09:23:26.682Z,12.23
2019-04-16T09:26:18.620Z,11.43
2019-04-16T09:29:03.799Z,11.43
2019-04-16T09:31:38.598Z,10.67
2019-04-16T09:34:10.915Z,10.53
2019-04-16T09:36:50.750Z,10.60
2019-04-16T09:39:27.387Z,10.23
2019-04-16T09:41:56.857Z,11.00
2019-04-16T09:44:29.722Z,10.80
2019-04-16T09:46:59.872Z,10.53
2019-04-16T09:49:30.631Z,10.70
2019-04-16T09:52:00.121Z,10.50
2019-04-16T09:54:29.602Z,10.47
2019-04-16T09:56:59.729Z,10.30
2019-04-16T09:59:31.580Z,10.67
2019-04-16T10:02:02.982Z,10.33
2019-04-16T10:04:32.888Z,10.73
2019-04-16T10:07:02.354Z,10.73
2019-04-16T10:09:31.838Z,10.50
2019-04-16T10:12:01.570Z,10.03
2019-04-16T10:14:31.121Z,10.30
2019-04-16T10:17:00.580Z,10.57
2019-04-16T10:19:30.286Z,9.40
2019-04-16T10:21:59.970Z,10.60
2019-04-16T10:24:47.570Z,10.80
2019-04-16T10:27:18.896Z,10.37
2019-04-16T10:29:48.624Z,10.07
2019-04-16T10:32:18.781Z,10.27
2019-04-16T10:34:48.357Z,11.23
2019-04-16T10:37:17.821Z,10.40
2019-04-16T10:39:48.945Z,10.37
2019-04-16T10:42:20.073Z,11.30
2019-04-16T10:45:03.507Z,11.17
2019-04-16T10:47:46.563Z,10.93
2019-04-16T10:50:34.222Z,11.10
2019-04-16T10:53:05.322Z,10.20
2019-04-16T10:55:36.497Z,11.83
2019-04-16T10:58:23.767Z,11.15
2019-04-16T11:01:01.713Z,11.38
2019-04-16T11:03:49.427Z,10.70
2019-04-16T11:06:23.269Z,11.20
2019-04-16T11:08:52.851Z,11.00
2019-04-16T11:11:22.317Z,10.32
2019-04-16T11:14:00.160Z,10.80
2019-04-16T11:16:24.166Z,10.58
2019-04-16T11:18:55.093Z,9.55
2019-04-16T11:21:24.875Z,10.15
2019-04-16T11:23:54.648Z,10.38
2019-04-16T11:26:24.449Z,10.63
2019-04-16T11:28:53.944Z,10.10
2019-04-16T11:31:25.048Z,10.72
2019-04-16T11:33:54.580Z,12.07
2019-04-16T11:36:24.077Z,10.90
2019-04-16T11:38:53.545Z,11.30
2019-04-16T11:41:23.377Z,11.33
2019-04-16T11:43:52.846Z,10.47
2019-04-16T11:46:22.277Z,11.05
2019-04-16T11:48:51.788Z,10.90
2019-04-16T11:51:21.280Z,10.80
2019-04-16T11:53:50.772Z,10.07
2019-04-16T11:56:22.466Z,10.20
2019-04-16T11:58:51.492Z,10.50
2019-04-16T12:01:28.008Z,11.00
2019-04-16T12:04:15.634Z,10.23
2019-04-16T12:07:05.583Z,10.27
2019-04-16T12:09:35.902Z,10.53
2019-04-16T12:12:06.996Z,10.13
2019-04-16T12:14:47.348Z,10.23
2019-04-16T12:17:21.663Z,9.93
2019-04-16T12:20:09.025Z,10.50
2019-04-16T12:22:45.907Z,10.35
2019-04-16T12:25:23.064Z,10.60
2019-04-16T12:27:54.299Z,10.72
2019-04-16T12:30:41.377Z,10.13
2019-04-16T12:33:18.654Z,9.83
2019-04-16T12:35:55.632Z,9.10
2019-04-16T12:38:29.639Z,9.63
2019-04-16T12:41:01.065Z,10.10
2019-04-16T12:43:32.199Z,9.80
2019-04-16T12:46:03.242Z,9.63
2019-04-16T12:48:36.829Z,9.98
2019-04-16T12:51:16.552Z,10.13
2019-04-16T12:53:52.912Z,10.20
2019-04-16T12:56:26.394Z,10.18
2019-04-16T12:59:12.935Z,10.70
2019-04-16T13:01:44.102Z,10.20
2019-04-16T13:04:31.025Z,10.72
2019-04-16T13:07:04.827Z,10.70
2019-04-16T13:09:35.959Z,11.33
2019-04-16T13:12:23.328Z,10.63
2019-04-16T13:15:09.840Z,10.93
2019-04-16T13:17:55.951Z,10.45
2019-04-16T13:20:43.497Z,10.20
2019-04-16T13:23:31.542Z,10.70
2019-04-16T13:26:13.298Z,10.93
2019-04-16T13:28:43.272Z,10.90
2019-04-16T13:31:13.524Z,11.25
2019-04-16T13:33:43.561Z,11.75
2019-04-16T13:36:14.215Z,12.10
2019-04-16T13:38:48.600Z,11.90
2019-04-16T13:41:18.071Z,12.43
2019-04-16T13:44:09.010Z,11.57
2019-04-16T13:46:37.248Z,10.90
2019-04-16T13:49:17.088Z,11.93
2019-04-16T13:51:47.771Z,12.13
2019-04-16T13:54:22.781Z,12.73
2019-04-16T13:56:53.915Z,12.05
2019-04-16T13:59:41.586Z,12.03
2019-04-16T14:02:17.436Z,11.48
2019-04-16T14:04:43.888Z,11.38
2019-04-16T14:07:13.643Z,11.45
2019-04-16T14:09:44.399Z,11.03
2019-04-16T14:12:13.993Z,11.35
2019-04-16T14:14:43.459Z,10.45
2019-04-16T14:17:17.606Z,10.35
2019-04-16T14:19:47.121Z,11.70
2019-04-16T14:22:21.641Z,10.82
2019-04-16T14:24:47.752Z,10.43
2019-04-16T14:27:17.236Z,11.60
2019-04-16T14:29:46.725Z,11.30
2019-04-16T14:32:16.209Z,12.13
2019-04-16T14:34:47.369Z,11.68
2019-04-16T14:37:17.022Z,11.20
2019-04-16T14:39:51.229Z,11.10
2019-04-16T14:42:22.252Z,10.90
2019-04-16T14:44:59.202Z,11.40
2019-04-16T14:47:29.950Z,10.90
2019-04-16T14:49:59.840Z,10.70
2019-04-16T14:52:29.324Z,10.57
2019-04-16T14:55:03.122Z,10.80
2019-04-16T14:57:32.661Z,11.27
2019-04-16T15:00:19.972Z,10.25
2019-04-16T15:02:51.098Z,11.03
2019-04-16T15:05:22.211Z,10.75
2019-04-16T15:07:59.917Z,11.53
2019-04-16T15:10:31.343Z,11.27
2019-04-16T15:13:02.791Z,11.37
2019-04-16T15:15:34.184Z,10.80
2019-04-16T15:18:14.237Z,11.73
2019-04-16T15:21:03.659Z,11.10
2019-04-16T15:23:43.526Z,12.13
2019-04-16T15:26:23.381Z,11.30
2019-04-16T15:28:57.145Z,11.90
2019-04-16T15:31:34.267Z,12.43
2019-04-16T15:34:14.148Z,12.03
2019-04-16T15:36:50.573Z,12.30
2019-04-16T15:39:21.089Z,12.67
2019-04-16T15:42:08.639Z,12.47
2019-04-16T15:44:42.638Z,12.63
2019-04-16T15:47:31.860Z,12.30
2019-04-16T15:50:02.057Z,13.77
2019-04-16T15:52:48.227Z,12.73
2019-04-16T15:55:37.340Z,13.27
2019-04-16T15:58:11.133Z,13.23
2019-04-16T16:00:58.661Z,13.27
2019-04-16T16:03:44.916Z,13.77
2019-04-16T16:06:22.421Z,14.53
2019-04-16T16:08:56.867Z,13.53
2019-04-16T16:11:27.965Z,12.53
2019-04-16T16:14:00.387Z,13.57
2019-04-16T16:16:41.135Z,13.67
2019-04-16T16:18:59.795Z,13.83
2019-04-16T16:21:29.302Z,12.97
2019-04-16T16:23:59.034Z,13.07
2019-04-16T16:26:28.505Z,13.27
2019-04-16T16:28:57.970Z,13.73
2019-04-16T16:31:31.346Z,14.03
2019-04-16T16:33:58.628Z,13.73
2019-04-16T16:36:28.114Z,13.70
2019-04-16T16:38:57.559Z,13.57
2019-04-16T16:41:27.031Z,13.03
2019-04-16T16:43:56.533Z,13.27
2019-04-16T16:46:56.028Z,13.43
2019-04-16T16:49:15.671Z,12.80
2019-04-16T16:51:57.457Z,15.53
2019-04-16T16:54:28.019Z,13.33
2019-04-16T16:57:17.202Z,13.97
2019-04-16T17:00:00.355Z,12.20
2019-04-16T17:02:36.004Z,11.87
2019-04-16T17:05:08.553Z,13.60
2019-04-16T17:07:38.091Z,12.57
2019-04-16T17:10:09.596Z,11.73
2019-04-16T17:12:39.047Z,12.63
2019-04-16T17:15:09.435Z,12.00
2019-04-16T17:17:39.210Z,12.23
2019-04-16T17:20:08.770Z,12.30
2019-04-16T17:22:40.679Z,12.17
2019-04-16T17:25:11.957Z,11.83
2019-04-16T17:27:51.156Z,11.90
2019-04-16T17:30:12.143Z,12.83
2019-04-16T17:32:41.597Z,12.10
2019-04-16T17:35:15.564Z,12.13
2019-04-16T17:37:42.246Z,12.07
2019-04-16T17:40:30.243Z,11.30
2019-04-16T17:43:01.348Z,11.20
2019-04-16T17:45:32.814Z,11.53
2019-04-16T17:48:09.766Z,10.63
2019-04-16T17:50:41.067Z,10.90
2019-04-16T17:53:28.748Z,11.17
2019-04-16T17:56:16.478Z,12.40
2019-04-16T17:58:56.509Z,11.47
2019-04-16T18:01:40.375Z,11.20
2019-04-16T18:04:13.132Z,10.93
2019-04-16T18:06:47.163Z,11.50
2019-04-16T18:09:18.257Z,11.00
2019-04-16T18:12:05.353Z,11.40
2019-04-16T18:14:52.776Z,11.23
2019-04-16T18:17:46.277Z,10.50
2019-04-16T18:20:08.490Z,10.93
2019-04-16T18:22:45.798Z,10.03
2019-04-16T18:25:21.371Z,10.70
2019-04-16T18:27:52.610Z,11.43
2019-04-16T18:30:41.844Z,10.63
2019-04-16T18:33:14.774Z,11.07
2019-04-16T18:35:45.842Z,10.80
2019-04-16T18:38:31.953Z,10.23
2019-04-16T18:41:11.872Z,10.90
2019-04-16T18:43:48.665Z,13.57
2019-04-16T18:46:19.792Z,10.43
2019-04-16T18:48:54.296Z,10.80
2019-04-16T18:51:24.038Z,11.40
2019-04-16T18:53:53.690Z,10.90
2019-04-16T18:56:23.244Z,11.30
2019-04-16T18:58:53.060Z,11.20
2019-04-16T19:01:29.705Z,10.80
2019-04-16T19:03:58.921Z,10.63
2019-04-16T19:06:28.358Z,11.07
2019-04-16T19:08:57.836Z,11.33
2019-04-16T19:11:27.366Z,10.30
2019-04-16T19:13:57.360Z,10.80
2019-04-16T19:16:26.812Z,10.50
2019-04-16T19:18:56.307Z,11.10
2019-04-16T19:21:25.806Z,10.20
2019-04-16T19:23:55.309Z,10.67
2019-04-16T19:26:24.773Z,10.30
2019-04-16T19:28:54.312Z,10.80
2019-04-16T19:31:23.943Z,10.67
2019-04-16T19:33:53.432Z,11.20
2019-04-16T19:36:27.227Z,11.27
2019-04-16T19:38:54.099Z,10.93
2019-04-16T19:41:24.551Z,11.53
2019-04-16T19:43:54.132Z,11.10
2019-04-16T19:46:23.595Z,10.57
2019-04-16T19:48:53.310Z,10.77
2019-04-16T19:51:22.778Z,11.00
2019-04-16T19:53:52.235Z,11.17
2019-04-16T19:56:21.762Z,11.27
2019-04-16T19:58:51.229Z,10.33
2019-04-16T20:01:20.685Z,10.27
2019-04-16T20:03:50.151Z,10.40
2019-04-16T20:06:22.714Z,10.80
2019-04-16T20:08:50.954Z,11.03
2019-04-16T20:11:21.604Z,10.27
2019-04-16T20:13:51.190Z,10.17
2019-04-16T20:16:20.645Z,10.70
2019-04-16T20:18:51.525Z,10.90
2019-04-16T20:21:21.143Z,9.73
2019-04-16T20:23:50.618Z,10.60
2019-04-16T20:26:20.078Z,10.43
2019-04-16T20:28:49.835Z,10.13
2019-04-16T20:31:19.288Z,10.13
2019-04-16T20:33:48.757Z,10.97
2019-04-16T20:36:22.484Z,11.23
2019-04-16T20:38:49.393Z,9.80
2019-04-16T20:41:19.276Z,10.77
2019-04-16T20:43:48.762Z,10.40
2019-04-16T20:46:18.221Z,10.87
2019-04-16T20:48:47.676Z,11.00
2019-04-16T20:51:17.204Z,11.30
2019-04-16T20:53:46.668Z,11.70
2019-04-16T20:56:20.041Z,10.40
2019-04-16T20:58:47.302Z,10.53
2019-04-16T21:01:32.988Z,11.17
2019-04-16T21:04:05.071Z,10.50
2019-04-16T21:06:29.999Z,11.53
2019-04-16T21:08:59.491Z,11.37
2019-04-16T21:11:29.256Z,10.80
2019-04-16T21:13:59.795Z,10.40
2019-04-16T21:16:33.521Z,11.53
2019-04-16T21:19:00.853Z,11.40
2019-04-16T21:21:30.307Z,12.00
2019-04-16T21:23:59.775Z,11.43
2019-04-16T21:26:29.233Z,11.13
2019-04-16T21:29:06.333Z,11.30
2019-04-16T21:31:42.349Z,10.87
2019-04-16T21:34:24.977Z,10.93
2019-04-16T21:37:11.821Z,10.93
2019-04-16T21:39:51.368Z,11.67
2019-04-16T21:42:20.147Z,11.70
2019-04-16T21:44:49.616Z,11.60
2019-04-16T21:47:23.268Z,11.50
2019-04-16T21:49:50.511Z,11.63
2019-04-16T21:52:23.082Z,11.70
2019-04-16T21:54:51.307Z,11.53
2019-04-16T21:57:20.760Z,12.00
2019-04-16T21:59:56.734Z,12.10
2019-04-16T22:02:23.069Z,12.57
2019-04-16T22:04:52.710Z,11.20
2019-04-16T22:07:24.682Z,11.70
2019-04-16T22:09:53.375Z,11.47
2019-04-16T22:12:22.861Z,12.07
2019-04-16T22:14:54.216Z,12.77
2019-04-16T22:17:23.631Z,11.73
2019-04-16T22:19:54.643Z,12.00
2019-04-16T22:22:27.310Z,11.97
2019-04-16T22:24:56.077Z,11.13
2019-04-16T22:27:25.862Z,11.40
2019-04-16T22:29:55.331Z,11.03
2019-04-16T22:32:26.988Z,11.97
2019-04-16T22:34:56.298Z,11.27
2019-04-16T22:37:25.804Z,11.97
2019-04-16T22:40:00.034Z,12.17
2019-04-16T22:42:31.400Z,11.40
2019-04-16T22:45:08.032Z,11.60
2019-04-16T22:47:39.157Z,12.00
2019-04-16T22:50:16.068Z,11.47
2019-04-16T22:52:41.667Z,12.07
2019-04-16T22:55:11.149Z,11.23
2019-04-16T22:57:40.682Z,12.03
2019-04-16T23:00:13.089Z,12.10
2019-04-16T23:02:42.732Z,11.37
2019-04-16T23:05:13.759Z,12.00
2019-04-16T23:07:43.214Z,11.73
2019-04-16T23:10:12.924Z,11.23
2019-04-16T23:12:42.381Z,12.00
2019-04-16T23:15:13.293Z,11.90
2019-04-16T23:17:45.796Z,11.20
2019-04-16T23:20:28.464Z,11.27
2019-04-16T23:22:46.545Z,11.33
2019-04-16T23:25:16.343Z,12.30
2019-04-16T23:27:45.812Z,12.20
2019-04-16T23:30:15.756Z,11.67
2019-04-16T23:32:46.482Z,12.27
2019-04-16T23:35:15.961Z,11.07
2019-04-16T23:37:45.419Z,12.20
2019-04-16T23:40:14.871Z,11.77
2019-04-16T23:42:47.478Z,12.10
2019-04-16T23:45:37.232Z,11.97
2019-04-16T23:48:08.316Z,12.50
2019-04-16T23:50:45.109Z,12.27
2019-04-16T23:53:15.475Z,12.37
2019-04-16T23:56:03.578Z,11.87
2019-04-16T23:58:37.625Z,12.20
